sensor_id;sensor_type;location;lat;lon;timestamp;temperature;humidity
11511;DHT22;5812;48.864;9.190;2022-12-18T00:01:57;-9.90;1.00
11511;DHT22;5812;48.864;9.190;2022-12-18T00:04:24;-10.00;1.00
11511;DHT22;5812;48.864;9.190;2022-12-18T00:06:51;-10.00;1.00
11511;DHT22;5812;48.864;9.190;2022-12-18T00:09:17;-10.10;1.00
11511;DHT22;5812;48.864;9.190;2022-12-18T00:11:42;-10.10;1.00
11511;DHT22;5812;48.864;9.190;2022-12-18T00:14:10;-10.10;1.00
11511;DHT22;5812;48.864;9.190;2022-12-18T00:16:36;-10.20;1.00
11511;DHT22;5812;48.864;9.190;2022-12-18T00:19:03;-10.30;1.00
11511;DHT22;5812;48.864;9.190;2022-12-18T00:21:30;-10.20;1.00
11511;DHT22;5812;48.864;9.190;2022-12-18T00:23:58;-10.20;1.00
11511;DHT22;5812;48.864;9.190;2022-12-18T00:26:32;-10.20;1.00
11511;DHT22;5812;48.864;9.190;2022-12-18T00:29:12;-10.00;1.00
11511;DHT22;5812;48.864;9.190;2022-12-18T00:31:43;-10.10;1.00
11511;DHT22;5812;48.864;9.190;2022-12-18T00:34:14;-10.00;1.00
11511;DHT22;5812;48.864;9.190;2022-12-18T00:36:40;-10.00;1.00
11511;DHT22;5812;48.864;9.190;2022-12-18T00:39:06;-10.00;1.00
11511;DHT22;5812;48.864;9.190;2022-12-18T00:41:32;-10.20;1.00
11511;DHT22;5812;48.864;9.190;2022-12-18T00:44:18;-10.20;1.00
11511;DHT22;5812;48.864;9.190;2022-12-18T00:46:45;-10.30;1.00
11511;DHT22;5812;48.864;9.190;2022-12-18T00:49:11;-10.30;1.00
11511;DHT22;5812;48.864;9.190;2022-12-18T00:51:40;-10.30;1.00
11511;DHT22;5812;48.864;9.190;2022-12-18T00:54:05;-10.20;1.00
11511;DHT22;5812;48.864;9.190;2022-12-18T00:56:31;-10.20;1.00
11511;DHT22;5812;48.864;9.190;2022-12-18T00:58:57;-10.30;1.00
11511;DHT22;5812;48.864;9.190;2022-12-18T01:01:22;-10.20;1.00
11511;DHT22;5812;48.864;9.190;2022-12-18T01:03:48;-10.10;1.00
11511;DHT22;5812;48.864;9.190;2022-12-18T01:06:15;-10.20;1.00
11511;DHT22;5812;48.864;9.190;2022-12-18T01:08:40;-10.20;1.00
11511;DHT22;5812;48.864;9.190;2022-12-18T01:11:08;-9.90;1.00
11511;DHT22;5812;48.864;9.190;2022-12-18T01:13:34;-9.30;99.20
11511;DHT22;5812;48.864;9.190;2022-12-18T01:16:00;-9.20;81.80
11511;DHT22;5812;48.864;9.190;2022-12-18T01:18:25;-9.00;98.70
11511;DHT22;5812;48.864;9.190;2022-12-18T01:20:51;-8.90;99.90
11511;DHT22;5812;48.864;9.190;2022-12-18T01:23:16;-8.90;95.90
11511;DHT22;5812;48.864;9.190;2022-12-18T01:25:42;-8.90;72.80
11511;DHT22;5812;48.864;9.190;2022-12-18T01:28:07;-9.00;59.50
11511;DHT22;5812;48.864;9.190;2022-12-18T01:30:33;-8.90;74.70
11511;DHT22;5812;48.864;9.190;2022-12-18T01:32:59;-9.10;28.10
11511;DHT22;5812;48.864;9.190;2022-12-18T01:35:24;-9.20;19.00
11511;DHT22;5812;48.864;9.190;2022-12-18T01:37:54;-9.00;90.90
11511;DHT22;5812;48.864;9.190;2022-12-18T01:40:20;-9.10;29.80
11511;DHT22;5812;48.864;9.190;2022-12-18T01:42:53;-9.00;51.50
11511;DHT22;5812;48.864;9.190;2022-12-18T01:47:45;-8.90;42.10
11511;DHT22;5812;48.864;9.190;2022-12-18T01:50:17;-8.90;43.00
11511;DHT22;5812;48.864;9.190;2022-12-18T01:52:50;-8.90;47.80
11511;DHT22;5812;48.864;9.190;2022-12-18T01:55:19;-8.90;51.70
11511;DHT22;5812;48.864;9.190;2022-12-18T01:57:47;-8.90;20.00
11511;DHT22;5812;48.864;9.190;2022-12-18T02:00:19;-9.00;18.60
11511;DHT22;5812;48.864;9.190;2022-12-18T02:02:46;-8.80;77.90
11511;DHT22;5812;48.864;9.190;2022-12-18T02:05:16;-8.70;64.50
11511;DHT22;5812;48.864;9.190;2022-12-18T02:10:28;-8.60;37.30
11511;DHT22;5812;48.864;9.190;2022-12-18T02:18:36;-8.60;24.10
11511;DHT22;5812;48.864;9.190;2022-12-18T02:26:50;-8.60;21.70
11511;DHT22;5812;48.864;9.190;2022-12-18T02:29:25;-8.40;39.60
11511;DHT22;5812;48.864;9.190;2022-12-18T02:31:58;-8.40;52.00
11511;DHT22;5812;48.864;9.190;2022-12-18T02:34:33;-8.50;16.50
11511;DHT22;5812;48.864;9.190;2022-12-18T02:37:05;-8.50;21.20
11511;DHT22;5812;48.864;9.190;2022-12-18T02:39:33;-8.40;41.90
11511;DHT22;5812;48.864;9.190;2022-12-18T02:41:59;-8.40;20.70
11511;DHT22;5812;48.864;9.190;2022-12-18T02:44:27;-8.40;33.70
11511;DHT22;5812;48.864;9.190;2022-12-18T02:46:53;-8.40;25.10
11511;DHT22;5812;48.864;9.190;2022-12-18T02:49:36;-8.50;12.80
11511;DHT22;5812;48.864;9.190;2022-12-18T02:55:07;-8.50;17.90
11511;DHT22;5812;48.864;9.190;2022-12-18T02:57:43;-8.50;12.10
11511;DHT22;5812;48.864;9.190;2022-12-18T03:00:17;-8.50;10.00
11511;DHT22;5812;48.864;9.190;2022-12-18T03:03:06;-8.50;13.90
11511;DHT22;5812;48.864;9.190;2022-12-18T03:05:55;-8.50;18.70
11511;DHT22;5812;48.864;9.190;2022-12-18T03:08:24;-8.40;33.50
11511;DHT22;5812;48.864;9.190;2022-12-18T03:11:12;-8.50;4.10
11511;DHT22;5812;48.864;9.190;2022-12-18T03:16:12;-8.50;3.60
11511;DHT22;5812;48.864;9.190;2022-12-18T03:21:11;-8.50;21.40
11511;DHT22;5812;48.864;9.190;2022-12-18T03:23:45;-8.60;1.00
11511;DHT22;5812;48.864;9.190;2022-12-18T03:26:15;-8.30;53.60
11511;DHT22;5812;48.864;9.190;2022-12-18T03:28:50;-8.40;18.90
11511;DHT22;5812;48.864;9.190;2022-12-18T03:31:17;-8.50;3.50
11511;DHT22;5812;48.864;9.190;2022-12-18T03:33:56;-8.50;1.00
11511;DHT22;5812;48.864;9.190;2022-12-18T03:36:22;-8.60;1.00
11511;DHT22;5812;48.864;9.190;2022-12-18T03:38:49;-8.70;1.00
11511;DHT22;5812;48.864;9.190;2022-12-18T03:47:03;-8.50;1.00
11511;DHT22;5812;48.864;9.190;2022-12-18T03:49:47;-8.50;1.00
11511;DHT22;5812;48.864;9.190;2022-12-18T03:55:12;-8.40;12.90
11511;DHT22;5812;48.864;9.190;2022-12-18T03:57:38;-8.50;1.00
11511;DHT22;5812;48.864;9.190;2022-12-18T04:00:12;-8.50;1.00
11511;DHT22;5812;48.864;9.190;2022-12-18T04:02:42;-8.50;1.00
11511;DHT22;5812;48.864;9.190;2022-12-18T04:05:11;-8.40;1.00
11511;DHT22;5812;48.864;9.190;2022-12-18T04:07:38;-8.40;1.00
11511;DHT22;5812;48.864;9.190;2022-12-18T04:10:07;-8.50;1.00
11511;DHT22;5812;48.864;9.190;2022-12-18T04:12:33;-8.50;1.00
11511;DHT22;5812;48.864;9.190;2022-12-18T04:14:58;-8.30;16.50
11511;DHT22;5812;48.864;9.190;2022-12-18T04:17:24;-8.30;1.00
11511;DHT22;5812;48.864;9.190;2022-12-18T04:19:50;-8.30;6.20
11511;DHT22;5812;48.864;9.190;2022-12-18T04:22:16;-8.30;1.00
11511;DHT22;5812;48.864;9.190;2022-12-18T04:24:41;-8.40;1.00
11511;DHT22;5812;48.864;9.190;2022-12-18T04:27:07;-8.60;1.00
11511;DHT22;5812;48.864;9.190;2022-12-18T04:29:33;-8.60;1.00
11511;DHT22;5812;48.864;9.190;2022-12-18T04:31:58;-8.60;1.00
11511;DHT22;5812;48.864;9.190;2022-12-18T04:34:24;-8.60;1.00
11511;DHT22;5812;48.864;9.190;2022-12-18T04:36:50;-8.60;1.00
11511;DHT22;5812;48.864;9.190;2022-12-18T04:39:18;-8.60;1.00
11511;DHT22;5812;48.864;9.190;2022-12-18T04:41:44;-8.50;1.00
11511;DHT22;5812;48.864;9.190;2022-12-18T04:44:09;-8.50;1.00
11511;DHT22;5812;48.864;9.190;2022-12-18T04:46:35;-8.70;1.00
11511;DHT22;5812;48.864;9.190;2022-12-18T04:49:01;-8.60;1.00
11511;DHT22;5812;48.864;9.190;2022-12-18T04:51:26;-8.70;1.00
11511;DHT22;5812;48.864;9.190;2022-12-18T04:53:52;-8.80;1.00
11511;DHT22;5812;48.864;9.190;2022-12-18T04:56:17;-8.90;1.00
11511;DHT22;5812;48.864;9.190;2022-12-18T04:58:44;-9.00;1.00
11511;DHT22;5812;48.864;9.190;2022-12-18T05:01:13;-9.10;1.00
11511;DHT22;5812;48.864;9.190;2022-12-18T05:03:40;-9.20;1.00
11511;DHT22;5812;48.864;9.190;2022-12-18T05:06:06;-9.10;1.00
11511;DHT22;5812;48.864;9.190;2022-12-18T05:08:32;-9.10;1.00
11511;DHT22;5812;48.864;9.190;2022-12-18T05:11:21;-9.30;1.00
11511;DHT22;5812;48.864;9.190;2022-12-18T05:13:47;-9.40;1.00
11511;DHT22;5812;48.864;9.190;2022-12-18T05:16:13;-9.40;1.00
11511;DHT22;5812;48.864;9.190;2022-12-18T05:18:40;-9.30;1.00
11511;DHT22;5812;48.864;9.190;2022-12-18T05:21:05;-9.30;1.00
11511;DHT22;5812;48.864;9.190;2022-12-18T05:23:31;-9.30;1.00
11511;DHT22;5812;48.864;9.190;2022-12-18T05:26:01;-9.20;1.00
11511;DHT22;5812;48.864;9.190;2022-12-18T05:28:29;-9.20;1.00
11511;DHT22;5812;48.864;9.190;2022-12-18T05:30:58;-9.20;1.00
11511;DHT22;5812;48.864;9.190;2022-12-18T05:33:25;-9.30;1.00
11511;DHT22;5812;48.864;9.190;2022-12-18T05:35:53;-9.30;1.00
11511;DHT22;5812;48.864;9.190;2022-12-18T05:38:19;-9.20;1.00
11511;DHT22;5812;48.864;9.190;2022-12-18T05:40:46;-9.30;1.00
11511;DHT22;5812;48.864;9.190;2022-12-18T05:43:12;-9.40;1.00
11511;DHT22;5812;48.864;9.190;2022-12-18T05:45:38;-9.40;1.00
11511;DHT22;5812;48.864;9.190;2022-12-18T05:48:04;-9.30;1.00
11511;DHT22;5812;48.864;9.190;2022-12-18T05:50:30;-9.30;1.00
11511;DHT22;5812;48.864;9.190;2022-12-18T05:52:56;-9.30;1.00
11511;DHT22;5812;48.864;9.190;2022-12-18T05:55:21;-9.30;1.00
11511;DHT22;5812;48.864;9.190;2022-12-18T05:57:47;-9.40;1.00
11511;DHT22;5812;48.864;9.190;2022-12-18T06:00:13;-9.40;1.00
11511;DHT22;5812;48.864;9.190;2022-12-18T06:02:39;-9.50;1.00
11511;DHT22;5812;48.864;9.190;2022-12-18T06:05:05;-9.50;1.00
11511;DHT22;5812;48.864;9.190;2022-12-18T06:07:30;-9.50;1.00
11511;DHT22;5812;48.864;9.190;2022-12-18T06:09:56;-9.50;1.00
11511;DHT22;5812;48.864;9.190;2022-12-18T06:12:21;-9.40;1.00
11511;DHT22;5812;48.864;9.190;2022-12-18T06:14:47;-9.50;1.00
11511;DHT22;5812;48.864;9.190;2022-12-18T06:17:12;-9.50;1.00
11511;DHT22;5812;48.864;9.190;2022-12-18T06:19:38;-9.50;1.00
11511;DHT22;5812;48.864;9.190;2022-12-18T06:22:04;-9.40;1.00
11511;DHT22;5812;48.864;9.190;2022-12-18T06:24:30;-9.40;1.00
11511;DHT22;5812;48.864;9.190;2022-12-18T06:26:55;-9.30;1.00
11511;DHT22;5812;48.864;9.190;2022-12-18T06:29:21;-9.50;1.00
11511;DHT22;5812;48.864;9.190;2022-12-18T06:31:47;-9.50;1.00
11511;DHT22;5812;48.864;9.190;2022-12-18T06:34:12;-9.50;1.00
11511;DHT22;5812;48.864;9.190;2022-12-18T06:36:38;-9.60;1.00
11511;DHT22;5812;48.864;9.190;2022-12-18T06:39:03;-9.50;1.00
11511;DHT22;5812;48.864;9.190;2022-12-18T06:41:29;-9.50;1.00
11511;DHT22;5812;48.864;9.190;2022-12-18T06:43:55;-9.50;1.00
11511;DHT22;5812;48.864;9.190;2022-12-18T06:46:20;-9.50;1.00
11511;DHT22;5812;48.864;9.190;2022-12-18T06:48:47;-9.60;1.00
11511;DHT22;5812;48.864;9.190;2022-12-18T06:51:19;-9.50;1.00
11511;DHT22;5812;48.864;9.190;2022-12-18T06:53:45;-9.60;1.00
11511;DHT22;5812;48.864;9.190;2022-12-18T06:56:10;-9.60;1.00
11511;DHT22;5812;48.864;9.190;2022-12-18T06:58:36;-9.60;1.00
11511;DHT22;5812;48.864;9.190;2022-12-18T07:01:08;-9.60;1.00
11511;DHT22;5812;48.864;9.190;2022-12-18T07:03:34;-9.60;1.00
11511;DHT22;5812;48.864;9.190;2022-12-18T07:06:00;-9.50;1.00
11511;DHT22;5812;48.864;9.190;2022-12-18T07:08:25;-9.50;1.00
11511;DHT22;5812;48.864;9.190;2022-12-18T07:10:51;-9.50;1.00
11511;DHT22;5812;48.864;9.190;2022-12-18T07:13:18;-9.50;1.00
11511;DHT22;5812;48.864;9.190;2022-12-18T07:15:44;-9.00;1.00
11511;DHT22;5812;48.864;9.190;2022-12-18T07:18:10;-9.50;1.00
11511;DHT22;5812;48.864;9.190;2022-12-18T07:20:36;-9.00;1.00
11511;DHT22;5812;48.864;9.190;2022-12-18T07:23:03;-9.50;1.00
11511;DHT22;5812;48.864;9.190;2022-12-18T07:25:29;-9.40;1.00
11511;DHT22;5812;48.864;9.190;2022-12-18T07:27:54;-9.40;1.00
11511;DHT22;5812;48.864;9.190;2022-12-18T07:30:20;-9.40;1.00
11511;DHT22;5812;48.864;9.190;2022-12-18T07:32:46;-9.40;1.00
11511;DHT22;5812;48.864;9.190;2022-12-18T07:35:11;-9.30;1.00
11511;DHT22;5812;48.864;9.190;2022-12-18T07:37:37;-9.30;1.00
11511;DHT22;5812;48.864;9.190;2022-12-18T07:40:03;-9.20;1.00
11511;DHT22;5812;48.864;9.190;2022-12-18T07:42:28;-9.40;1.00
11511;DHT22;5812;48.864;9.190;2022-12-18T07:45:00;-9.40;1.00
11511;DHT22;5812;48.864;9.190;2022-12-18T07:47:27;-9.50;1.00
11511;DHT22;5812;48.864;9.190;2022-12-18T07:49:52;-9.40;1.00
11511;DHT22;5812;48.864;9.190;2022-12-18T07:52:18;-9.30;1.00
11511;DHT22;5812;48.864;9.190;2022-12-18T07:54:44;-9.40;1.00
11511;DHT22;5812;48.864;9.190;2022-12-18T07:57:10;-9.40;1.00
11511;DHT22;5812;48.864;9.190;2022-12-18T07:59:36;-9.30;1.00
11511;DHT22;5812;48.864;9.190;2022-12-18T08:02:02;-9.30;1.00
11511;DHT22;5812;48.864;9.190;2022-12-18T08:04:28;-9.30;1.00
11511;DHT22;5812;48.864;9.190;2022-12-18T08:06:54;-9.20;1.00
11511;DHT22;5812;48.864;9.190;2022-12-18T08:09:19;-9.20;1.00
11511;DHT22;5812;48.864;9.190;2022-12-18T08:11:45;-9.20;1.00
11511;DHT22;5812;48.864;9.190;2022-12-18T08:14:10;-9.20;1.00
11511;DHT22;5812;48.864;9.190;2022-12-18T08:16:36;-9.10;1.00
11511;DHT22;5812;48.864;9.190;2022-12-18T08:19:02;-9.00;1.00
11511;DHT22;5812;48.864;9.190;2022-12-18T08:21:30;-8.90;1.00
11511;DHT22;5812;48.864;9.190;2022-12-18T08:23:58;-8.90;1.00
11511;DHT22;5812;48.864;9.190;2022-12-18T08:26:25;-8.80;1.00
11511;DHT22;5812;48.864;9.190;2022-12-18T08:28:53;-8.70;1.00
11511;DHT22;5812;48.864;9.190;2022-12-18T08:31:19;-8.60;1.00
11511;DHT22;5812;48.864;9.190;2022-12-18T08:33:45;-8.60;1.00
11511;DHT22;5812;48.864;9.190;2022-12-18T08:36:13;-8.50;1.00
11511;DHT22;5812;48.864;9.190;2022-12-18T08:38:38;-8.50;1.00
11511;DHT22;5812;48.864;9.190;2022-12-18T08:41:06;-8.40;1.00
11511;DHT22;5812;48.864;9.190;2022-12-18T08:43:33;-8.30;1.00
11511;DHT22;5812;48.864;9.190;2022-12-18T08:46:22;-8.20;1.00
11511;DHT22;5812;48.864;9.190;2022-12-18T08:48:49;-8.10;1.00
11511;DHT22;5812;48.864;9.190;2022-12-18T08:51:19;-8.00;1.00
11511;DHT22;5812;48.864;9.190;2022-12-18T08:53:45;-7.90;1.00
11511;DHT22;5812;48.864;9.190;2022-12-18T08:56:12;-7.80;1.00
11511;DHT22;5812;48.864;9.190;2022-12-18T08:58:37;-7.70;1.00
11511;DHT22;5812;48.864;9.190;2022-12-18T09:01:05;-7.70;1.00
11511;DHT22;5812;48.864;9.190;2022-12-18T09:03:31;-7.70;1.00
11511;DHT22;5812;48.864;9.190;2022-12-18T09:05:58;-7.70;1.00
11511;DHT22;5812;48.864;9.190;2022-12-18T09:08:23;-7.60;1.00
11511;DHT22;5812;48.864;9.190;2022-12-18T09:10:51;-7.50;99.90
11511;DHT22;5812;48.864;9.190;2022-12-18T09:13:17;-7.40;1.00
11511;DHT22;5812;48.864;9.190;2022-12-18T09:15:48;-7.20;1.00
11511;DHT22;5812;48.864;9.190;2022-12-18T09:18:15;-7.10;99.90
11511;DHT22;5812;48.864;9.190;2022-12-18T09:20:41;-6.90;99.90
11511;DHT22;5812;48.864;9.190;2022-12-18T09:23:07;-6.60;99.90
11511;DHT22;5812;48.864;9.190;2022-12-18T09:25:34;-6.50;99.90
11511;DHT22;5812;48.864;9.190;2022-12-18T09:28:02;-6.20;99.90
11511;DHT22;5812;48.864;9.190;2022-12-18T09:30:29;-6.20;99.90
11511;DHT22;5812;48.864;9.190;2022-12-18T09:32:55;-5.80;99.90
11511;DHT22;5812;48.864;9.190;2022-12-18T09:35:20;-5.40;99.90
11511;DHT22;5812;48.864;9.190;2022-12-18T09:37:46;-5.30;99.90
11511;DHT22;5812;48.864;9.190;2022-12-18T09:40:19;-5.10;99.90
11511;DHT22;5812;48.864;9.190;2022-12-18T09:42:51;-4.90;99.90
11511;DHT22;5812;48.864;9.190;2022-12-18T09:45:18;-4.60;99.90
11511;DHT22;5812;48.864;9.190;2022-12-18T09:47:45;-5.00;99.90
11511;DHT22;5812;48.864;9.190;2022-12-18T09:50:27;-5.30;99.90
11511;DHT22;5812;48.864;9.190;2022-12-18T09:52:57;-5.20;99.90
11511;DHT22;5812;48.864;9.190;2022-12-18T09:55:43;-5.40;99.90
11511;DHT22;5812;48.864;9.190;2022-12-18T10:00:36;-5.10;99.90
11511;DHT22;5812;48.864;9.190;2022-12-18T10:03:09;-4.60;99.90
11511;DHT22;5812;48.864;9.190;2022-12-18T10:09:09;-5.10;99.90
11511;DHT22;5812;48.864;9.190;2022-12-18T10:12:14;-5.10;99.90
11511;DHT22;5812;48.864;9.190;2022-12-18T10:15:05;-5.00;99.90
11511;DHT22;5812;48.864;9.190;2022-12-18T10:17:45;-4.80;99.90
11511;DHT22;5812;48.864;9.190;2022-12-18T10:20:34;-4.70;99.90
11511;DHT22;5812;48.864;9.190;2022-12-18T10:26:11;-4.40;99.90
11511;DHT22;5812;48.864;9.190;2022-12-18T10:28:39;-4.60;99.90
11511;DHT22;5812;48.864;9.190;2022-12-18T10:31:26;-4.50;99.90
11511;DHT22;5812;48.864;9.190;2022-12-18T10:33:53;-4.10;99.90
11511;DHT22;5812;48.864;9.190;2022-12-18T10:36:20;-4.10;99.90
11511;DHT22;5812;48.864;9.190;2022-12-18T10:38:46;-4.10;99.90
11511;DHT22;5812;48.864;9.190;2022-12-18T10:43:45;-3.90;99.90
11511;DHT22;5812;48.864;9.190;2022-12-18T10:51:33;-3.40;87.20
11511;DHT22;5812;48.864;9.190;2022-12-18T10:54:17;-2.90;99.90
11511;DHT22;5812;48.864;9.190;2022-12-18T10:56:44;-2.90;99.90
11511;DHT22;5812;48.864;9.190;2022-12-18T10:59:13;-3.10;34.40
11511;DHT22;5812;48.864;9.190;2022-12-18T11:01:51;-1.30;99.90
11511;DHT22;5812;48.864;9.190;2022-12-18T11:04:35;-2.50;55.90
11511;DHT22;5812;48.864;9.190;2022-12-18T11:07:14;-2.30;67.70
11511;DHT22;5812;48.864;9.190;2022-12-18T11:09:40;-2.40;42.10
11511;DHT22;5812;48.864;9.190;2022-12-18T11:12:17;-1.10;1.00
11511;DHT22;5812;48.864;9.190;2022-12-18T11:14:47;-1.30;1.00
11511;DHT22;5812;48.864;9.190;2022-12-18T11:17:31;-2.10;1.00
11511;DHT22;5812;48.864;9.190;2022-12-18T11:22:29;-1.70;1.00
11511;DHT22;5812;48.864;9.190;2022-12-18T11:27:38;-1.40;1.00
11511;DHT22;5812;48.864;9.190;2022-12-18T11:32:43;-1.60;1.00
11511;DHT22;5812;48.864;9.190;2022-12-18T11:37:41;-0.60;1.00
11511;DHT22;5812;48.864;9.190;2022-12-18T11:40:17;-0.50;1.00
11511;DHT22;5812;48.864;9.190;2022-12-18T11:43:10;1.00;99.90
11511;DHT22;5812;48.864;9.190;2022-12-18T11:45:42;1.40;99.90
11511;DHT22;5812;48.864;9.190;2022-12-18T11:49:28;3.00;99.90
11511;DHT22;5812;48.864;9.190;2022-12-18T11:51:41;2.30;99.90
11511;DHT22;5812;48.864;9.190;2022-12-18T11:54:18;2.40;99.90
11511;DHT22;5812;48.864;9.190;2022-12-18T11:59:22;3.50;99.90
11511;DHT22;5812;48.864;9.190;2022-12-18T12:01:55;3.30;99.90
11511;DHT22;5812;48.864;9.190;2022-12-18T12:10:07;3.50;99.90
11511;DHT22;5812;48.864;9.190;2022-12-18T12:26:13;2.30;99.90
11511;DHT22;5812;48.864;9.190;2022-12-18T12:32:00;2.60;99.90
11511;DHT22;5812;48.864;9.190;2022-12-18T12:34:58;1.80;99.90
11511;DHT22;5812;48.864;9.190;2022-12-18T12:37:44;1.30;99.90
11511;DHT22;5812;48.864;9.190;2022-12-18T12:40:19;1.40;99.90
11511;DHT22;5812;48.864;9.190;2022-12-18T12:42:53;0.90;99.90
11511;DHT22;5812;48.864;9.190;2022-12-18T12:45:58;1.70;99.90
11511;DHT22;5812;48.864;9.190;2022-12-18T12:48:35;0.50;99.90
11511;DHT22;5812;48.864;9.190;2022-12-18T12:51:07;0.60;99.90
11511;DHT22;5812;48.864;9.190;2022-12-18T12:53:36;0.90;99.90
11511;DHT22;5812;48.864;9.190;2022-12-18T12:56:04;0.70;99.90
11511;DHT22;5812;48.864;9.190;2022-12-18T12:58:45;0.80;99.90
11511;DHT22;5812;48.864;9.190;2022-12-18T13:01:28;0.80;99.90
11511;DHT22;5812;48.864;9.190;2022-12-18T13:07:06;0.60;99.90
11511;DHT22;5812;48.864;9.190;2022-12-18T13:18:50;0.10;99.90
11511;DHT22;5812;48.864;9.190;2022-12-18T13:21:28;-0.20;99.90
11511;DHT22;5812;48.864;9.190;2022-12-18T13:23:55;0.20;99.90
11511;DHT22;5812;48.864;9.190;2022-12-18T13:28:54;0.80;99.90
11511;DHT22;5812;48.864;9.190;2022-12-18T13:34:25;0.40;99.90
11511;DHT22;5812;48.864;9.190;2022-12-18T13:36:53;0.50;99.90
11511;DHT22;5812;48.864;9.190;2022-12-18T13:41:49;0.20;99.90
11511;DHT22;5812;48.864;9.190;2022-12-18T13:44:34;0.10;99.90
11511;DHT22;5812;48.864;9.190;2022-12-18T13:47:05;0.00;99.90
11511;DHT22;5812;48.864;9.190;2022-12-18T13:49:46;0.00;99.90
11511;DHT22;5812;48.864;9.190;2022-12-18T13:52:18;-0.10;99.90
11511;DHT22;5812;48.864;9.190;2022-12-18T13:54:49;-0.20;99.90
11511;DHT22;5812;48.864;9.190;2022-12-18T13:57:32;-0.30;99.90
11511;DHT22;5812;48.864;9.190;2022-12-18T13:59:59;-0.40;99.90
11511;DHT22;5812;48.864;9.190;2022-12-18T14:02:37;-0.40;99.90
11511;DHT22;5812;48.864;9.190;2022-12-18T14:05:03;-0.50;99.90
11511;DHT22;5812;48.864;9.190;2022-12-18T14:07:29;-0.50;99.90
11511;DHT22;5812;48.864;9.190;2022-12-18T14:09:58;-0.50;99.90
11511;DHT22;5812;48.864;9.190;2022-12-18T14:12:27;-0.60;99.90
11511;DHT22;5812;48.864;9.190;2022-12-18T14:15:34;-0.80;99.90
11511;DHT22;5812;48.864;9.190;2022-12-18T14:18:19;-0.90;99.90
11511;DHT22;5812;48.864;9.190;2022-12-18T14:20:48;-1.00;99.90
11511;DHT22;5812;48.864;9.190;2022-12-18T14:23:39;-1.10;1.00
11511;DHT22;5812;48.864;9.190;2022-12-18T14:26:25;-1.20;1.00
11511;DHT22;5812;48.864;9.190;2022-12-18T14:28:59;-1.30;1.00
11511;DHT22;5812;48.864;9.190;2022-12-18T14:31:29;-1.40;1.00
11511;DHT22;5812;48.864;9.190;2022-12-18T14:33:54;-1.50;1.00
11511;DHT22;5812;48.864;9.190;2022-12-18T14:36:23;-1.60;1.00
11511;DHT22;5812;48.864;9.190;2022-12-18T14:38:54;-1.70;1.00
11511;DHT22;5812;48.864;9.190;2022-12-18T14:41:21;-1.80;1.00
11511;DHT22;5812;48.864;9.190;2022-12-18T14:43:49;-1.80;1.00
11511;DHT22;5812;48.864;9.190;2022-12-18T14:49:30;-2.00;1.00
11511;DHT22;5812;48.864;9.190;2022-12-18T14:52:00;-2.10;1.00
11511;DHT22;5812;48.864;9.190;2022-12-18T14:54:28;-2.10;1.00
11511;DHT22;5812;48.864;9.190;2022-12-18T14:57:25;-2.10;1.00
11511;DHT22;5812;48.864;9.190;2022-12-18T15:00:15;-1.90;1.00
11511;DHT22;5812;48.864;9.190;2022-12-18T15:02:41;-2.40;1.00
11511;DHT22;5812;48.864;9.190;2022-12-18T15:05:18;-2.50;19.50
11511;DHT22;5812;48.864;9.190;2022-12-18T15:10:20;-2.80;95.40
11511;DHT22;5812;48.864;9.190;2022-12-18T15:18:23;-3.00;99.90
11511;DHT22;5812;48.864;9.190;2022-12-18T15:21:11;-1.40;99.90
11511;DHT22;5812;48.864;9.190;2022-12-18T15:26:12;-3.20;99.90
11511;DHT22;5812;48.864;9.190;2022-12-18T15:28:55;-3.30;99.90
11511;DHT22;5812;48.864;9.190;2022-12-18T15:31:23;-3.30;99.90
11511;DHT22;5812;48.864;9.190;2022-12-18T15:36:19;-3.40;99.90
11511;DHT22;5812;48.864;9.190;2022-12-18T15:38:49;-3.40;99.90
11511;DHT22;5812;48.864;9.190;2022-12-18T15:41:17;-3.30;99.90
11511;DHT22;5812;48.864;9.190;2022-12-18T15:43:43;-3.40;99.90
11511;DHT22;5812;48.864;9.190;2022-12-18T15:46:17;-3.50;99.90
11511;DHT22;5812;48.864;9.190;2022-12-18T15:48:48;-3.60;99.90
11511;DHT22;5812;48.864;9.190;2022-12-18T15:51:24;-3.50;99.90
11511;DHT22;5812;48.864;9.190;2022-12-18T15:53:52;-3.60;99.90
11511;DHT22;5812;48.864;9.190;2022-12-18T15:56:19;-3.70;99.90
11511;DHT22;5812;48.864;9.190;2022-12-18T15:59:15;-3.80;99.90
11511;DHT22;5812;48.864;9.190;2022-12-18T16:01:42;-3.70;1.00
11511;DHT22;5812;48.864;9.190;2022-12-18T16:04:12;-3.80;1.00
11511;DHT22;5812;48.864;9.190;2022-12-18T16:06:39;-3.80;1.00
11511;DHT22;5812;48.864;9.190;2022-12-18T16:09:05;-3.80;1.00
11511;DHT22;5812;48.864;9.190;2022-12-18T16:11:32;-3.90;1.00
11511;DHT22;5812;48.864;9.190;2022-12-18T16:14:22;-3.90;1.00
11511;DHT22;5812;48.864;9.190;2022-12-18T16:16:52;-3.90;1.00
11511;DHT22;5812;48.864;9.190;2022-12-18T16:19:18;-3.80;1.00
11511;DHT22;5812;48.864;9.190;2022-12-18T16:21:44;-3.90;1.00
11511;DHT22;5812;48.864;9.190;2022-12-18T16:24:22;-3.90;1.00
11511;DHT22;5812;48.864;9.190;2022-12-18T16:26:49;-3.90;1.00
11511;DHT22;5812;48.864;9.190;2022-12-18T16:29:17;-3.90;1.00
11511;DHT22;5812;48.864;9.190;2022-12-18T16:31:43;-3.90;1.00
11511;DHT22;5812;48.864;9.190;2022-12-18T16:34:21;-5.20;1.00
11511;DHT22;5812;48.864;9.190;2022-12-18T16:36:48;-3.80;1.00
11511;DHT22;5812;48.864;9.190;2022-12-18T16:39:15;-3.90;1.00
11511;DHT22;5812;48.864;9.190;2022-12-18T16:41:40;-3.90;1.00
11511;DHT22;5812;48.864;9.190;2022-12-18T16:44:06;-3.90;1.00
11511;DHT22;5812;48.864;9.190;2022-12-18T16:46:31;-4.10;1.00
11511;DHT22;5812;48.864;9.190;2022-12-18T16:48:58;-4.00;1.00
11511;DHT22;5812;48.864;9.190;2022-12-18T16:51:25;-4.00;1.00
11511;DHT22;5812;48.864;9.190;2022-12-18T16:53:52;-4.00;1.00
11511;DHT22;5812;48.864;9.190;2022-12-18T16:56:18;-4.10;1.00
11511;DHT22;5812;48.864;9.190;2022-12-18T16:58:43;-3.90;1.00
11511;DHT22;5812;48.864;9.190;2022-12-18T17:01:10;-3.90;1.00
11511;DHT22;5812;48.864;9.190;2022-12-18T17:03:36;-3.90;1.00
11511;DHT22;5812;48.864;9.190;2022-12-18T17:06:03;-3.90;1.00
11511;DHT22;5812;48.864;9.190;2022-12-18T17:08:29;-3.90;1.00
11511;DHT22;5812;48.864;9.190;2022-12-18T17:10:54;-3.90;1.00
11511;DHT22;5812;48.864;9.190;2022-12-18T17:13:26;-3.90;1.00
11511;DHT22;5812;48.864;9.190;2022-12-18T17:15:51;-3.80;1.00
11511;DHT22;5812;48.864;9.190;2022-12-18T17:18:17;-3.70;1.00
11511;DHT22;5812;48.864;9.190;2022-12-18T17:20:43;-3.60;1.00
11511;DHT22;5812;48.864;9.190;2022-12-18T17:23:09;-3.60;1.00
11511;DHT22;5812;48.864;9.190;2022-12-18T17:25:34;-3.60;1.00
11511;DHT22;5812;48.864;9.190;2022-12-18T17:28:03;-3.50;1.00
11511;DHT22;5812;48.864;9.190;2022-12-18T17:30:29;-3.50;1.00
11511;DHT22;5812;48.864;9.190;2022-12-18T17:32:54;-3.50;1.00
11511;DHT22;5812;48.864;9.190;2022-12-18T17:35:20;-3.40;1.00
11511;DHT22;5812;48.864;9.190;2022-12-18T17:37:46;-3.50;1.00
11511;DHT22;5812;48.864;9.190;2022-12-18T17:40:14;-3.40;1.00
11511;DHT22;5812;48.864;9.190;2022-12-18T17:42:39;-3.40;1.00
11511;DHT22;5812;48.864;9.190;2022-12-18T17:45:05;-3.40;1.00
11511;DHT22;5812;48.864;9.190;2022-12-18T17:47:32;-3.40;1.00
11511;DHT22;5812;48.864;9.190;2022-12-18T17:49:57;-3.00;1.00
11511;DHT22;5812;48.864;9.190;2022-12-18T17:52:23;-1.00;1.00
11511;DHT22;5812;48.864;9.190;2022-12-18T17:54:48;-3.50;1.00
11511;DHT22;5812;48.864;9.190;2022-12-18T17:57:14;-1.00;1.00
11511;DHT22;5812;48.864;9.190;2022-12-18T17:59:39;-3.40;1.00
11511;DHT22;5812;48.864;9.190;2022-12-18T18:02:05;-3.40;99.90
11511;DHT22;5812;48.864;9.190;2022-12-18T18:04:31;-3.40;1.00
11511;DHT22;5812;48.864;9.190;2022-12-18T18:06:57;-3.30;1.00
11511;DHT22;5812;48.864;9.190;2022-12-18T18:09:22;-3.40;1.00
11511;DHT22;5812;48.864;9.190;2022-12-18T18:11:48;-3.40;1.00
11511;DHT22;5812;48.864;9.190;2022-12-18T18:14:32;-3.40;1.00